createdAt,value
2019-02-18T00:01:31.046Z,2.97
2019-02-18T00:03:57.721Z,5.07
2019-02-18T00:06:26.138Z,4.93
2019-02-18T00:08:52.782Z,3.23
2019-02-18T00:11:19.435Z,3.67
2019-02-18T00:13:46.149Z,2.40
2019-02-18T00:16:12.900Z,3.80
2019-02-18T00:18:39.625Z,3.87
2019-02-18T00:21:06.347Z,4.83
2019-02-18T00:23:33.776Z,4.17
2019-02-18T00:26:00.471Z,2.87
2019-02-18T00:28:27.151Z,6.03
2019-02-18T00:30:53.849Z,8.27
2019-02-18T00:33:20.612Z,2.77
2019-02-18T00:35:47.326Z,3.07
2019-02-18T00:38:14.046Z,3.40
2019-02-18T00:40:41.517Z,2.63
2019-02-18T00:43:08.175Z,4.03
2019-02-18T00:45:34.881Z,3.60
2019-02-18T00:48:02.381Z,2.60
2019-02-18T00:50:29.113Z,4.90
2019-02-18T00:52:55.822Z,2.03
2019-02-18T00:55:23.294Z,6.23
2019-02-18T00:57:50.700Z,2.57
2019-02-18T01:00:17.448Z,2.53
2019-02-18T01:02:44.241Z,4.23
2019-02-18T01:05:10.904Z,3.83
2019-02-18T01:07:37.615Z,1.97
2019-02-18T01:10:04.397Z,2.67
2019-02-18T01:12:31.144Z,2.30
2019-02-18T01:14:57.856Z,2.30
2019-02-18T01:17:24.799Z,3.57
2019-02-18T01:19:52.334Z,3.70
2019-02-18T01:22:19.006Z,2.23
2019-02-18T01:24:45.734Z,3.30
2019-02-18T01:27:12.453Z,2.13
2019-02-18T01:29:39.230Z,2.33
2019-02-18T01:32:05.929Z,2.10
2019-02-18T01:34:33.350Z,2.47
2019-02-18T01:37:00.132Z,2.20
2019-02-18T01:39:26.784Z,1.67
2019-02-18T01:41:53.540Z,1.57
2019-02-18T01:44:20.227Z,2.53
2019-02-18T01:46:47.637Z,1.70
2019-02-18T01:49:14.373Z,3.83
2019-02-18T01:51:41.296Z,1.37
2019-02-18T01:54:07.994Z,2.17
2019-02-18T01:56:34.681Z,2.67
2019-02-18T01:59:01.360Z,2.07
2019-02-18T02:01:28.104Z,3.50
2019-02-18T02:03:54.764Z,3.27
2019-02-18T02:06:22.183Z,2.53
2019-02-18T02:08:49.089Z,1.80
2019-02-18T02:11:15.780Z,6.47
2019-02-18T02:13:43.290Z,3.30
2019-02-18T02:16:10.133Z,2.33
2019-02-18T02:18:36.778Z,2.27
2019-02-18T02:21:04.531Z,2.23
2019-02-18T02:23:31.224Z,2.00
2019-02-18T02:25:57.872Z,1.67
2019-02-18T02:28:24.664Z,2.23
2019-02-18T02:30:51.437Z,3.73
2019-02-18T02:33:18.202Z,1.83
2019-02-18T02:35:44.928Z,4.37
2019-02-18T02:38:13.196Z,2.23
2019-02-18T02:40:39.915Z,2.60
2019-02-18T02:43:06.720Z,3.07
2019-02-18T02:45:34.182Z,1.90
2019-02-18T02:48:00.914Z,2.17
2019-02-18T02:50:28.404Z,2.77
2019-02-18T02:52:55.090Z,2.53
2019-02-18T02:55:21.812Z,2.33
2019-02-18T02:57:48.517Z,3.00
2019-02-18T03:00:15.280Z,3.73
2019-02-18T03:02:42.754Z,2.97
2019-02-18T03:05:09.581Z,2.67
2019-02-18T03:07:36.301Z,2.60
2019-02-18T03:10:12.349Z,2.97
2019-02-18T03:12:39.113Z,3.80
2019-02-18T03:15:13.288Z,2.63
2019-02-18T03:17:40.015Z,2.40
2019-02-18T03:20:07.499Z,2.53
2019-02-18T03:22:34.440Z,3.27
2019-02-18T03:25:07.232Z,3.10
2019-02-18T03:27:33.913Z,3.80
2019-02-18T03:30:17.558Z,4.23
2019-02-18T03:32:45.486Z,2.33
2019-02-18T03:35:12.316Z,2.40
2019-02-18T03:37:39.160Z,3.10
2019-02-18T03:40:06.174Z,6.27
2019-02-18T03:42:33.609Z,4.67
2019-02-18T03:45:01.265Z,2.90
2019-02-18T03:47:28.076Z,2.93
2019-02-18T03:49:54.788Z,4.17
2019-02-18T03:52:22.292Z,2.63
2019-02-18T03:54:49.111Z,3.53
2019-02-18T03:57:16.156Z,3.20
2019-02-18T03:59:42.895Z,3.07
2019-02-18T04:02:09.947Z,3.47
2019-02-18T04:04:36.812Z,4.50
2019-02-18T04:07:04.570Z,5.03
2019-02-18T04:09:31.324Z,6.70
2019-02-18T04:11:58.234Z,6.77
2019-02-18T04:14:25.186Z,4.40
2019-02-18T04:16:52.116Z,4.37
2019-02-18T04:19:18.969Z,3.60
2019-02-18T04:21:46.117Z,5.07
2019-02-18T04:24:12.847Z,5.40
2019-02-18T04:26:40.522Z,6.93
2019-02-18T04:29:07.941Z,5.13
2019-02-18T04:31:34.738Z,5.27
2019-02-18T04:34:01.629Z,6.67
2019-02-18T04:36:28.421Z,8.13
2019-02-18T04:38:55.211Z,5.03
2019-02-18T04:41:22.092Z,6.87
2019-02-18T04:43:48.834Z,10.87
2019-02-18T04:46:15.673Z,11.73
2019-02-18T04:48:42.346Z,13.23
2019-02-18T04:51:09.276Z,12.60
2019-02-18T04:53:35.968Z,10.17
2019-02-18T04:56:02.640Z,12.40
2019-02-18T04:58:29.375Z,12.67
2019-02-18T05:00:56.153Z,10.77
2019-02-18T05:03:23.105Z,12.20
2019-02-18T05:05:49.905Z,9.67
2019-02-18T05:08:16.670Z,12.37
2019-02-18T05:10:43.483Z,9.37
2019-02-18T05:13:10.946Z,10.20
2019-02-18T05:15:40.313Z,8.67
2019-02-18T05:18:05.875Z,10.50
2019-02-18T05:20:32.553Z,14.43
2019-02-18T05:22:59.271Z,9.87
2019-02-18T05:25:26.930Z,14.03
2019-02-18T05:27:55.636Z,14.60
2019-02-18T05:30:22.527Z,12.50
2019-02-18T05:32:49.379Z,13.40
2019-02-18T05:35:17.345Z,13.93
2019-02-18T05:37:46.615Z,14.67
2019-02-18T05:40:13.473Z,9.90
2019-02-18T05:42:42.046Z,11.20
2019-02-18T05:45:09.077Z,13.30
2019-02-18T05:47:36.553Z,12.00
2019-02-18T05:50:04.131Z,14.67
2019-02-18T05:52:31.974Z,11.97
2019-02-18T05:54:58.636Z,13.23
2019-02-18T05:57:26.099Z,10.73
2019-02-18T05:59:52.843Z,12.13
2019-02-18T06:02:19.578Z,11.07
2019-02-18T06:04:46.297Z,13.20
2019-02-18T06:07:14.187Z,10.80
2019-02-18T06:09:41.959Z,14.17
2019-02-18T06:12:09.889Z,13.53
2019-02-18T06:14:37.763Z,12.17
2019-02-18T06:17:04.562Z,11.93
2019-02-18T06:19:31.356Z,10.37
2019-02-18T06:21:58.615Z,10.13
2019-02-18T06:24:25.698Z,11.00
2019-02-18T06:26:53.204Z,13.93
2019-02-18T06:29:19.934Z,13.87
2019-02-18T06:31:48.258Z,12.00
2019-02-18T06:34:15.325Z,9.20
2019-02-18T06:36:42.473Z,12.07
2019-02-18T06:39:09.914Z,10.03
2019-02-18T06:41:36.657Z,12.43
2019-02-18T06:44:03.795Z,9.47
2019-02-18T06:46:31.783Z,17.87
2019-02-18T06:48:58.665Z,11.30
2019-02-18T06:51:25.540Z,10.57
2019-02-18T06:53:53.020Z,12.13
2019-02-18T06:56:19.835Z,12.73
2019-02-18T06:58:48.062Z,12.03
2019-02-18T07:01:15.750Z,13.50
2019-02-18T07:03:46.197Z,11.87
2019-02-18T07:06:26.387Z,13.43
2019-02-18T07:09:09.292Z,13.67
2019-02-18T07:14:28.995Z,21.10
2019-02-18T07:16:55.746Z,15.17
2019-02-18T07:19:22.671Z,13.37
2019-02-18T07:21:49.395Z,12.90
2019-02-18T07:24:16.891Z,10.23
2019-02-18T07:26:43.688Z,10.00
2019-02-18T07:29:10.554Z,10.63
2019-02-18T07:31:37.292Z,10.37
2019-02-18T07:34:04.779Z,12.30
2019-02-18T07:36:31.477Z,12.57
2019-02-18T07:38:58.918Z,11.67
2019-02-18T07:41:26.425Z,12.17
2019-02-18T07:43:53.105Z,11.13
2019-02-18T07:46:20.550Z,12.43
2019-02-18T07:48:47.301Z,14.77
2019-02-18T07:51:13.970Z,13.43
2019-02-18T07:53:41.393Z,10.97
2019-02-18T07:56:08.185Z,10.97
2019-02-18T07:58:35.027Z,11.10
2019-02-18T08:01:03.413Z,11.33
2019-02-18T08:03:30.249Z,11.83
2019-02-18T08:05:56.922Z,10.60
2019-02-18T08:08:23.893Z,11.17
2019-02-18T08:10:51.463Z,10.20
2019-02-18T08:13:19.054Z,10.83
2019-02-18T08:15:46.006Z,10.80
2019-02-18T08:18:12.823Z,9.50
2019-02-18T08:20:39.564Z,9.40
2019-02-18T08:23:06.426Z,9.83
2019-02-18T08:25:33.257Z,9.47
2019-02-18T08:27:59.981Z,9.47
2019-02-18T08:30:26.789Z,8.87
2019-02-18T08:32:53.809Z,8.07
2019-02-18T08:35:20.640Z,7.73
2019-02-18T08:37:48.056Z,7.87
2019-02-18T08:40:22.137Z,8.87
2019-02-18T08:42:42.403Z,7.07
2019-02-18T08:45:10.122Z,6.97
2019-02-18T08:47:36.903Z,7.30
2019-02-18T08:50:03.666Z,7.33
2019-02-18T08:52:30.387Z,7.07
2019-02-18T08:54:57.185Z,5.97
2019-02-18T08:57:24.887Z,6.50
2019-02-18T08:59:51.684Z,6.00
2019-02-18T09:02:18.491Z,5.70
2019-02-18T09:04:45.315Z,6.77
2019-02-18T09:07:12.159Z,6.57
2019-02-18T09:09:38.936Z,5.50
2019-02-18T09:12:05.741Z,5.63
2019-02-18T09:14:32.511Z,5.60
2019-02-18T09:16:59.364Z,5.33
2019-02-18T09:19:26.914Z,5.37
2019-02-18T09:21:54.688Z,5.10
2019-02-18T09:24:24.348Z,5.10
2019-02-18T09:26:51.063Z,5.17
2019-02-18T09:29:18.550Z,4.17
2019-02-18T09:31:45.458Z,4.63
2019-02-18T09:34:12.323Z,4.53
2019-02-18T09:36:40.020Z,5.00
2019-02-18T09:39:09.687Z,4.37
2019-02-18T09:41:37.191Z,4.50
2019-02-18T09:44:03.932Z,4.40
2019-02-18T09:46:30.795Z,4.50
2019-02-18T09:48:57.575Z,4.67
2019-02-18T09:51:24.345Z,4.87
2019-02-18T09:53:51.151Z,5.30
2019-02-18T09:56:17.849Z,4.50
2019-02-18T09:58:44.578Z,4.50
2019-02-18T10:01:11.383Z,6.60
2019-02-18T10:03:38.807Z,4.33
2019-02-18T10:06:05.597Z,5.10
2019-02-18T10:08:33.158Z,5.33
2019-02-18T10:10:59.931Z,4.30
2019-02-18T10:13:26.694Z,4.83
2019-02-18T10:15:53.589Z,4.23
2019-02-18T10:18:20.388Z,4.97
2019-02-18T10:20:47.916Z,4.93
2019-02-18T10:23:14.735Z,4.40
2019-02-18T10:25:41.486Z,4.73
2019-02-18T10:28:08.271Z,5.33
2019-02-18T10:30:35.018Z,5.07
2019-02-18T10:33:01.923Z,4.70
2019-02-18T10:35:28.852Z,5.20
2019-02-18T10:37:55.606Z,4.83
2019-02-18T10:40:22.304Z,4.83
2019-02-18T10:42:49.123Z,5.63
2019-02-18T10:45:16.583Z,5.63
2019-02-18T10:47:43.353Z,4.90
2019-02-18T10:50:11.024Z,4.73
2019-02-18T10:52:37.774Z,4.60
2019-02-18T10:55:04.646Z,5.30
2019-02-18T10:57:31.453Z,4.67
2019-02-18T10:59:59.286Z,4.60
2019-02-18T11:02:25.358Z,5.13
2019-02-18T11:04:52.902Z,4.63
2019-02-18T11:07:19.685Z,4.70
2019-02-18T11:09:46.473Z,5.03
2019-02-18T11:12:13.246Z,5.07
2019-02-18T11:14:39.968Z,5.00
2019-02-18T11:17:06.797Z,4.43
2019-02-18T11:19:33.528Z,4.80
2019-02-18T11:22:00.244Z,4.83
2019-02-18T11:24:27.800Z,4.90
2019-02-18T11:26:54.632Z,4.57
2019-02-18T11:29:21.372Z,4.90
2019-02-18T11:31:48.277Z,4.77
2019-02-18T11:34:15.127Z,5.33
2019-02-18T11:36:41.920Z,4.90
2019-02-18T11:39:09.494Z,5.47
2019-02-18T11:41:36.230Z,6.10
2019-02-18T11:44:03.004Z,6.63
2019-02-18T11:46:29.790Z,5.60
2019-02-18T11:48:56.619Z,6.00
2019-02-18T11:51:23.346Z,7.10
2019-02-18T11:53:50.086Z,7.67
2019-02-18T11:56:16.814Z,8.70
2019-02-18T11:58:43.629Z,8.53
2019-02-18T12:01:10.397Z,7.57
2019-02-18T12:03:37.125Z,9.63
2019-02-18T12:06:03.936Z,9.87
2019-02-18T12:08:31.426Z,11.73
2019-02-18T12:10:58.248Z,9.47
2019-02-18T12:13:25.797Z,11.93
2019-02-18T12:15:52.556Z,11.47
2019-02-18T12:18:19.335Z,11.27
2019-02-18T12:20:46.219Z,12.87
2019-02-18T12:23:12.990Z,12.13
2019-02-18T12:25:39.786Z,10.90
2019-02-18T12:28:06.532Z,12.10
2019-02-18T12:30:34.097Z,15.97
2019-02-18T12:33:00.894Z,13.63
2019-02-18T12:35:31.106Z,11.27
2019-02-18T12:37:55.816Z,13.47
2019-02-18T12:40:22.277Z,14.63
2019-02-18T12:42:49.944Z,13.80
2019-02-18T12:45:16.713Z,13.50
2019-02-18T12:47:43.482Z,14.27
2019-02-18T12:50:10.290Z,13.60
2019-02-18T12:52:37.026Z,13.03
2019-02-18T12:55:04.625Z,12.80
2019-02-18T12:57:31.477Z,15.80
2019-02-18T12:59:59.254Z,16.60
2019-02-18T13:02:25.827Z,13.17
2019-02-18T13:04:53.332Z,12.73
2019-02-18T13:07:20.176Z,16.67
2019-02-18T13:09:46.939Z,14.17
2019-02-18T13:12:13.745Z,16.03
2019-02-18T13:14:40.532Z,15.97
2019-02-18T13:17:08.160Z,14.17
2019-02-18T13:19:34.929Z,16.57
2019-02-18T13:22:01.723Z,16.10
2019-02-18T13:24:28.589Z,16.13
2019-02-18T13:26:55.424Z,16.47
2019-02-18T13:29:22.118Z,16.40
2019-02-18T13:31:49.691Z,16.13
2019-02-18T13:34:16.478Z,16.97
2019-02-18T13:36:43.382Z,18.07
2019-02-18T13:39:10.315Z,17.40
2019-02-18T13:41:37.089Z,17.07
2019-02-18T13:44:03.955Z,16.70
2019-02-18T13:46:30.871Z,17.73
2019-02-18T13:48:57.620Z,19.73
2019-02-18T13:51:24.632Z,21.83
2019-02-18T13:53:52.066Z,20.00
2019-02-18T13:56:19.623Z,19.37
2019-02-18T13:58:46.417Z,21.47
2019-02-18T14:01:13.273Z,20.80
2019-02-18T14:03:40.034Z,23.17
2019-02-18T14:06:06.815Z,21.30
2019-02-18T14:08:34.381Z,21.80
2019-02-18T14:11:01.977Z,22.87
2019-02-18T14:13:28.732Z,19.30
2019-02-18T14:15:55.607Z,24.83
2019-02-18T14:18:22.502Z,23.43
2019-02-18T14:20:49.187Z,24.60
2019-02-18T14:23:16.025Z,22.53
2019-02-18T14:25:42.795Z,20.60
2019-02-18T14:28:09.575Z,25.20
2019-02-18T14:30:36.397Z,24.00
2019-02-18T14:33:03.177Z,22.77
2019-02-18T14:35:30.738Z,24.63
2019-02-18T14:37:57.658Z,21.93
2019-02-18T14:40:24.428Z,27.40
2019-02-18T14:42:51.231Z,26.13
2019-02-18T14:45:17.977Z,22.47
2019-02-18T14:47:44.745Z,25.83
2019-02-18T14:50:11.520Z,24.77
2019-02-18T14:52:39.124Z,25.70
2019-02-18T14:55:06.274Z,26.67
2019-02-18T14:57:33.042Z,26.77
2019-02-18T14:59:59.801Z,24.20
2019-02-18T15:02:28.323Z,24.73
2019-02-18T15:04:54.806Z,29.17
2019-02-18T15:07:21.611Z,25.40
2019-02-18T15:09:48.303Z,26.00
2019-02-18T15:12:15.113Z,25.57
2019-02-18T15:14:42.767Z,27.80
2019-02-18T15:17:08.787Z,30.83
2019-02-18T15:19:35.623Z,27.27
2019-02-18T15:22:02.464Z,28.30
2019-02-18T15:24:29.315Z,28.13
2019-02-18T15:26:56.012Z,30.17
2019-02-18T15:29:23.566Z,37.43
2019-02-18T15:31:50.297Z,29.87
2019-02-18T15:34:17.012Z,28.40
2019-02-18T15:36:43.840Z,28.93
2019-02-18T15:39:11.401Z,27.30
2019-02-18T15:41:38.232Z,28.03
2019-02-18T15:44:05.538Z,27.70
2019-02-18T15:46:33.250Z,29.60
2019-02-18T15:49:00.197Z,30.20
2019-02-18T15:51:27.027Z,26.93
2019-02-18T15:53:53.744Z,30.57
2019-02-18T15:56:21.864Z,31.77
2019-02-18T15:58:48.727Z,29.03
2019-02-18T16:01:15.576Z,33.97
2019-02-18T16:03:42.522Z,26.80
2019-02-18T16:06:09.485Z,31.10
2019-02-18T16:08:36.344Z,31.27
2019-02-18T16:11:03.815Z,25.60
2019-02-18T16:13:30.607Z,30.97
2019-02-18T16:15:57.309Z,27.70
2019-02-18T16:18:23.980Z,30.77
2019-02-18T16:20:50.793Z,28.20
2019-02-18T16:23:17.535Z,34.93
2019-02-18T16:25:45.198Z,26.57
2019-02-18T16:28:11.982Z,26.17
2019-02-18T16:30:38.657Z,30.77
2019-02-18T16:33:05.473Z,28.80
2019-02-18T16:35:32.231Z,29.70
2019-02-18T16:37:59.011Z,32.30
2019-02-18T16:40:27.307Z,30.80
2019-02-18T16:42:59.172Z,28.90
2019-02-18T16:45:19.487Z,33.43
2019-02-18T16:47:47.102Z,34.00
2019-02-18T16:50:13.864Z,36.40
2019-02-18T16:52:40.561Z,32.70
2019-02-18T16:55:09.266Z,30.43
2019-02-18T16:57:36.093Z,34.20
2019-02-18T17:00:02.866Z,30.23
2019-02-18T17:02:29.641Z,32.07
2019-02-18T17:04:57.138Z,30.00
2019-02-18T17:07:23.878Z,32.13
2019-02-18T17:09:50.648Z,30.90
2019-02-18T17:12:17.359Z,31.07
2019-02-18T17:14:44.049Z,29.67
2019-02-18T17:17:11.480Z,29.27
2019-02-18T17:19:39.902Z,34.33
2019-02-18T17:22:06.060Z,28.53
2019-02-18T17:24:32.748Z,33.47
2019-02-18T17:27:00.208Z,33.20
2019-02-18T17:29:26.999Z,34.47
2019-02-18T17:31:53.701Z,30.03
2019-02-18T17:34:21.195Z,30.70
2019-02-18T17:36:47.995Z,27.27
2019-02-18T17:39:14.798Z,27.10
2019-02-18T17:41:42.299Z,31.87
2019-02-18T17:44:09.794Z,32.30
2019-02-18T17:46:36.541Z,34.20
2019-02-18T17:49:03.991Z,30.70
2019-02-18T17:51:31.070Z,36.00
2019-02-18T17:53:57.883Z,31.13
2019-02-18T17:56:24.624Z,33.13
2019-02-18T17:58:51.397Z,26.63
2019-02-18T18:01:18.127Z,31.90
2019-02-18T18:03:44.783Z,33.17
2019-02-18T18:06:11.532Z,28.50
2019-02-18T18:08:38.218Z,30.17
2019-02-18T18:11:04.935Z,32.17
2019-02-18T18:13:31.688Z,30.17
2019-02-18T18:15:59.180Z,30.87
2019-02-18T18:18:25.864Z,29.67
2019-02-18T18:20:53.343Z,29.37
2019-02-18T18:23:20.041Z,28.83
2019-02-18T18:25:46.779Z,28.87
2019-02-18T18:28:13.573Z,28.33
2019-02-18T18:30:40.515Z,28.13
2019-02-18T18:33:08.038Z,33.70
2019-02-18T18:35:34.831Z,30.63
2019-02-18T18:38:01.564Z,33.57
2019-02-18T18:40:28.289Z,30.47
2019-02-18T18:42:55.354Z,27.77
2019-02-18T18:45:21.997Z,30.60
2019-02-18T18:47:48.670Z,32.63
2019-02-18T18:50:18.491Z,29.37
2019-02-18T18:52:45.391Z,28.50
2019-02-18T18:55:12.069Z,27.10
2019-02-18T18:57:38.871Z,28.77
2019-02-18T19:00:14.345Z,29.43
2019-02-18T19:02:41.136Z,27.23
2019-02-18T19:05:08.678Z,29.70
2019-02-18T19:07:35.434Z,28.60
2019-02-18T19:10:02.989Z,25.47
2019-02-18T19:12:30.428Z,31.37
2019-02-18T19:14:57.153Z,29.80
2019-02-18T19:17:23.886Z,26.53
2019-02-18T19:19:57.728Z,26.63
2019-02-18T19:22:17.296Z,25.27
2019-02-18T19:24:44.180Z,24.77
2019-02-18T19:27:10.837Z,24.63
2019-02-18T19:29:37.529Z,27.63
2019-02-18T19:32:05.072Z,25.60
2019-02-18T19:34:31.873Z,20.90
2019-02-18T19:36:59.356Z,25.87
2019-02-18T19:39:26.146Z,25.23
2019-02-18T19:41:53.667Z,24.93
2019-02-18T19:44:20.500Z,24.20
2019-02-18T19:46:47.346Z,23.77
2019-02-18T19:49:14.130Z,28.10
2019-02-18T19:51:41.078Z,26.27
2019-02-18T19:54:07.860Z,26.60
2019-02-18T19:56:34.655Z,24.63
2019-02-18T19:59:01.701Z,23.93
2019-02-18T20:01:28.473Z,23.07
2019-02-18T20:03:55.284Z,26.17
2019-02-18T20:06:22.088Z,25.00
2019-02-18T20:08:48.843Z,23.63
2019-02-18T20:11:15.636Z,23.93
2019-02-18T20:13:44.645Z,23.87
2019-02-18T20:16:11.723Z,29.20
2019-02-18T20:18:38.991Z,26.93
2019-02-18T20:21:06.931Z,23.63
2019-02-18T20:23:32.658Z,30.30
2019-02-18T20:25:59.504Z,23.43
2019-02-18T20:28:26.290Z,24.20
2019-02-18T20:30:53.135Z,25.10
2019-02-18T20:33:20.003Z,24.20
2019-02-18T20:35:47.023Z,22.87
2019-02-18T20:38:13.893Z,24.03
2019-02-18T20:40:42.354Z,23.37
2019-02-18T20:43:09.218Z,25.43
2019-02-18T20:45:36.196Z,23.27
2019-02-18T20:48:03.280Z,21.37
2019-02-18T20:50:30.143Z,25.50
2019-02-18T20:52:57.233Z,25.00
2019-02-18T20:55:24.081Z,25.77
2019-02-18T20:57:51.701Z,26.17
2019-02-18T21:00:19.782Z,26.53
2019-02-18T21:02:46.726Z,28.30
2019-02-18T21:05:13.497Z,27.90
2019-02-18T21:07:40.244Z,25.07
2019-02-18T21:10:08.569Z,27.10
2019-02-18T21:12:35.239Z,26.60
2019-02-18T21:15:01.961Z,27.33
2019-02-18T21:17:28.704Z,25.70
2019-02-18T21:19:58.935Z,24.53
2019-02-18T21:22:25.770Z,22.40
2019-02-18T21:24:53.432Z,23.13
2019-02-18T21:27:20.224Z,21.70
2019-02-18T21:29:47.768Z,27.23
2019-02-18T21:32:16.002Z,21.97
2019-02-18T21:34:43.131Z,25.73
2019-02-18T21:37:10.281Z,23.40
2019-02-18T21:39:37.352Z,28.87
2019-02-18T21:42:04.180Z,23.97
2019-02-18T21:44:32.710Z,28.07
2019-02-18T21:47:00.523Z,25.47
2019-02-18T21:49:29.286Z,23.07
2019-02-18T21:51:56.674Z,23.27
2019-02-18T21:54:23.618Z,19.20
2019-02-18T21:56:50.377Z,22.43
2019-02-18T21:59:17.134Z,23.53
2019-02-18T22:01:44.349Z,22.10
2019-02-18T22:04:11.331Z,27.67
2019-02-18T22:06:41.137Z,22.53
2019-02-18T22:09:07.895Z,23.77
2019-02-18T22:11:34.802Z,24.50
2019-02-18T22:14:01.627Z,25.30
2019-02-18T22:16:28.578Z,22.47
2019-02-18T22:18:55.239Z,24.07
2019-02-18T22:21:22.598Z,23.30
2019-02-18T22:23:50.267Z,22.83
2019-02-18T22:26:17.122Z,22.67
2019-02-18T22:28:44.647Z,29.50
2019-02-18T22:31:11.399Z,25.17
2019-02-18T22:33:38.068Z,23.87
2019-02-18T22:36:05.266Z,21.57
2019-02-18T22:38:32.118Z,20.03
2019-02-18T22:40:59.798Z,25.57
2019-02-18T22:43:26.610Z,18.67
2019-02-18T22:45:53.426Z,23.13
2019-02-18T22:48:20.201Z,21.53
2019-02-18T22:50:48.290Z,24.60
2019-02-18T22:53:15.278Z,29.07
2019-02-18T22:55:46.468Z,26.77
2019-02-18T22:58:14.509Z,25.13
2019-02-18T23:00:48.167Z,23.77
2019-02-18T23:03:15.233Z,24.80
2019-02-18T23:05:43.003Z,22.60
2019-02-18T23:08:09.734Z,25.87
2019-02-18T23:10:36.395Z,22.40
2019-02-18T23:13:04.628Z,21.93
2019-02-18T23:15:35.443Z,24.13
2019-02-18T23:18:06.907Z,26.80
2019-02-18T23:20:34.343Z,22.13
2019-02-18T23:23:01.288Z,23.20
2019-02-18T23:25:28.129Z,26.70
2019-02-18T23:27:55.594Z,22.00
2019-02-18T23:30:22.477Z,21.87
2019-02-18T23:32:49.261Z,21.17
2019-02-18T23:35:16.741Z,26.73
2019-02-18T23:37:43.780Z,24.80
2019-02-18T23:40:10.458Z,22.80
2019-02-18T23:42:37.213Z,19.40
2019-02-18T23:45:04.396Z,21.43
2019-02-18T23:47:31.865Z,19.80
2019-02-18T23:49:59.263Z,22.37
2019-02-18T23:52:27.781Z,22.43
2019-02-18T23:54:58.177Z,19.93
2019-02-18T23:57:25.046Z,20.97
2019-02-18T23:59:52.638Z,16.80
